sensor_id;sensor_type;location;lat;lon;timestamp;P1;durP1;ratioP1;P2;durP2;ratioP2
51358;SDS011;37448;51.588;7.248;2022-09-12T00:02:24;20.52;;;12.63;;
51358;SDS011;37448;51.588;7.248;2022-09-12T00:04:54;21.85;;;13.25;;
51358;SDS011;37448;51.588;7.248;2022-09-12T00:07:25;21.15;;;13.18;;
51358;SDS011;37448;51.588;7.248;2022-09-12T00:09:55;22.98;;;13.07;;
51358;SDS011;37448;51.588;7.248;2022-09-12T00:12:25;22.08;;;12.65;;
51358;SDS011;37448;51.588;7.248;2022-09-12T00:14:56;20.05;;;12.70;;
51358;SDS011;37448;51.588;7.248;2022-09-12T00:17:26;25.55;;;13.88;;
51358;SDS011;37448;51.588;7.248;2022-09-12T00:19:56;22.60;;;13.85;;
51358;SDS011;37448;51.588;7.248;2022-09-12T00:22:28;25.35;;;14.27;;
51358;SDS011;37448;51.588;7.248;2022-09-12T00:24:58;25.73;;;14.73;;
51358;SDS011;37448;51.588;7.248;2022-09-12T00:27:29;28.33;;;15.18;;
51358;SDS011;37448;51.588;7.248;2022-09-12T00:29:59;26.85;;;15.40;;
51358;SDS011;37448;51.588;7.248;2022-09-12T00:32:30;26.38;;;15.45;;
51358;SDS011;37448;51.588;7.248;2022-09-12T00:35:00;24.80;;;15.40;;
51358;SDS011;37448;51.588;7.248;2022-09-12T00:37:32;26.33;;;15.35;;
51358;SDS011;37448;51.588;7.248;2022-09-12T00:40:03;25.17;;;15.35;;
51358;SDS011;37448;51.588;7.248;2022-09-12T00:42:34;24.63;;;15.80;;
51358;SDS011;37448;51.588;7.248;2022-09-12T00:45:05;25.33;;;14.80;;
51358;SDS011;37448;51.588;7.248;2022-09-12T00:47:35;26.25;;;14.50;;
51358;SDS011;37448;51.588;7.248;2022-09-12T00:50:08;26.30;;;15.20;;
51358;SDS011;37448;51.588;7.248;2022-09-12T00:52:49;24.27;;;14.48;;
51358;SDS011;37448;51.588;7.248;2022-09-12T00:55:27;26.17;;;14.52;;
51358;SDS011;37448;51.588;7.248;2022-09-12T00:58:25;27.50;;;15.77;;
51358;SDS011;37448;51.588;7.248;2022-09-12T01:00:59;26.08;;;14.73;;
51358;SDS011;37448;51.588;7.248;2022-09-12T01:03:29;22.45;;;14.70;;
51358;SDS011;37448;51.588;7.248;2022-09-12T01:06:02;26.95;;;15.65;;
51358;SDS011;37448;51.588;7.248;2022-09-12T01:08:40;24.88;;;14.48;;
51358;SDS011;37448;51.588;7.248;2022-09-12T01:11:12;28.67;;;16.10;;
51358;SDS011;37448;51.588;7.248;2022-09-12T01:13:45;28.88;;;16.00;;
51358;SDS011;37448;51.588;7.248;2022-09-12T01:16:15;26.95;;;15.63;;
51358;SDS011;37448;51.588;7.248;2022-09-12T01:21:53;26.13;;;15.75;;
51358;SDS011;37448;51.588;7.248;2022-09-12T01:24:58;25.05;;;14.85;;
51358;SDS011;37448;51.588;7.248;2022-09-12T01:27:49;29.75;;;16.90;;
51358;SDS011;37448;51.588;7.248;2022-09-12T01:33:15;28.45;;;16.75;;
51358;SDS011;37448;51.588;7.248;2022-09-12T01:38:41;24.08;;;14.30;;
51358;SDS011;37448;51.588;7.248;2022-09-12T01:41:23;37.08;;;15.70;;
51358;SDS011;37448;51.588;7.248;2022-09-12T01:44:02;26.73;;;15.60;;
51358;SDS011;37448;51.588;7.248;2022-09-12T01:46:45;24.85;;;15.20;;
51358;SDS011;37448;51.588;7.248;2022-09-12T01:49:24;22.85;;;13.75;;
51358;SDS011;37448;51.588;7.248;2022-09-12T01:52:03;24.08;;;13.90;;
51358;SDS011;37448;51.588;7.248;2022-09-12T01:54:41;26.38;;;14.73;;
51358;SDS011;37448;51.588;7.248;2022-09-12T01:57:29;27.88;;;16.60;;
51358;SDS011;37448;51.588;7.248;2022-09-12T02:00:06;27.60;;;16.40;;
51358;SDS011;37448;51.588;7.248;2022-09-12T02:02:48;29.48;;;15.45;;
51358;SDS011;37448;51.588;7.248;2022-09-12T02:08:10;28.83;;;16.10;;
51358;SDS011;37448;51.588;7.248;2022-09-12T02:10:49;27.90;;;15.25;;
51358;SDS011;37448;51.588;7.248;2022-09-12T02:16:05;26.38;;;14.45;;
51358;SDS011;37448;51.588;7.248;2022-09-12T02:18:41;25.60;;;14.93;;
51358;SDS011;37448;51.588;7.248;2022-09-12T02:21:16;26.23;;;14.50;;
51358;SDS011;37448;51.588;7.248;2022-09-12T02:23:50;25.48;;;15.32;;
51358;SDS011;37448;51.588;7.248;2022-09-12T02:26:32;26.40;;;14.38;;
51358;SDS011;37448;51.588;7.248;2022-09-12T02:29:05;25.90;;;14.75;;
51358;SDS011;37448;51.588;7.248;2022-09-12T02:31:39;26.02;;;14.27;;
51358;SDS011;37448;51.588;7.248;2022-09-12T02:40:20;26.15;;;15.15;;
51358;SDS011;37448;51.588;7.248;2022-09-12T02:42:52;25.52;;;14.82;;
51358;SDS011;37448;51.588;7.248;2022-09-12T02:45:22;26.50;;;15.20;;
51358;SDS011;37448;51.588;7.248;2022-09-12T02:50:33;24.17;;;13.52;;
51358;SDS011;37448;51.588;7.248;2022-09-12T02:53:04;27.48;;;15.25;;
51358;SDS011;37448;51.588;7.248;2022-09-12T02:55:37;28.52;;;15.27;;
51358;SDS011;37448;51.588;7.248;2022-09-12T02:58:17;26.80;;;15.10;;
51358;SDS011;37448;51.588;7.248;2022-09-12T03:00:55;29.23;;;15.77;;
51358;SDS011;37448;51.588;7.248;2022-09-12T03:03:52;28.55;;;15.15;;
51358;SDS011;37448;51.588;7.248;2022-09-12T03:06:45;33.00;;;15.50;;
51358;SDS011;37448;51.588;7.248;2022-09-12T03:09:46;25.83;;;15.00;;
51358;SDS011;37448;51.588;7.248;2022-09-12T03:12:35;26.48;;;14.63;;
51358;SDS011;37448;51.588;7.248;2022-09-12T03:21:24;28.58;;;15.70;;
51358;SDS011;37448;51.588;7.248;2022-09-12T03:24:23;28.10;;;15.10;;
51358;SDS011;37448;51.588;7.248;2022-09-12T03:30:07;30.48;;;16.40;;
51358;SDS011;37448;51.588;7.248;2022-09-12T03:32:43;32.77;;;16.83;;
51358;SDS011;37448;51.588;7.248;2022-09-12T03:35:16;29.23;;;15.88;;
51358;SDS011;37448;51.588;7.248;2022-09-12T03:40:20;29.33;;;16.08;;
51358;SDS011;37448;51.588;7.248;2022-09-12T03:42:51;29.80;;;16.80;;
51358;SDS011;37448;51.588;7.248;2022-09-12T03:45:21;29.25;;;16.60;;
51358;SDS011;37448;51.588;7.248;2022-09-12T03:47:51;29.00;;;16.85;;
51358;SDS011;37448;51.588;7.248;2022-09-12T03:50:22;29.55;;;16.00;;
51358;SDS011;37448;51.588;7.248;2022-09-12T03:52:52;27.92;;;15.80;;
51358;SDS011;37448;51.588;7.248;2022-09-12T03:55:22;27.30;;;15.02;;
51358;SDS011;37448;51.588;7.248;2022-09-12T03:57:53;30.98;;;15.18;;
51358;SDS011;37448;51.588;7.248;2022-09-12T04:00:24;28.88;;;15.60;;
51358;SDS011;37448;51.588;7.248;2022-09-12T04:02:57;29.30;;;14.73;;
51358;SDS011;37448;51.588;7.248;2022-09-12T04:05:27;37.30;;;16.70;;
51358;SDS011;37448;51.588;7.248;2022-09-12T04:07:58;30.35;;;15.50;;
51358;SDS011;37448;51.588;7.248;2022-09-12T04:10:28;28.52;;;15.07;;
51358;SDS011;37448;51.588;7.248;2022-09-12T04:13:00;32.17;;;15.18;;
51358;SDS011;37448;51.588;7.248;2022-09-12T04:15:30;29.83;;;14.60;;
51358;SDS011;37448;51.588;7.248;2022-09-12T04:18:01;33.00;;;15.07;;
51358;SDS011;37448;51.588;7.248;2022-09-12T04:20:31;28.30;;;15.23;;
51358;SDS011;37448;51.588;7.248;2022-09-12T04:23:02;28.17;;;15.35;;
51358;SDS011;37448;51.588;7.248;2022-09-12T04:25:32;26.10;;;14.38;;
51358;SDS011;37448;51.588;7.248;2022-09-12T04:28:02;30.98;;;15.10;;
51358;SDS011;37448;51.588;7.248;2022-09-12T04:30:33;28.02;;;14.38;;
51358;SDS011;37448;51.588;7.248;2022-09-12T04:33:04;28.20;;;14.57;;
51358;SDS011;37448;51.588;7.248;2022-09-12T04:35:35;28.83;;;15.43;;
51358;SDS011;37448;51.588;7.248;2022-09-12T04:38:06;32.78;;;16.08;;
51358;SDS011;37448;51.588;7.248;2022-09-12T04:40:36;29.42;;;14.98;;
51358;SDS011;37448;51.588;7.248;2022-09-12T04:43:07;27.63;;;14.77;;
51358;SDS011;37448;51.588;7.248;2022-09-12T04:45:38;30.98;;;15.40;;
51358;SDS011;37448;51.588;7.248;2022-09-12T04:48:08;27.48;;;14.15;;
51358;SDS011;37448;51.588;7.248;2022-09-12T04:50:39;28.70;;;14.80;;
51358;SDS011;37448;51.588;7.248;2022-09-12T04:53:09;30.63;;;14.60;;
51358;SDS011;37448;51.588;7.248;2022-09-12T04:55:40;30.38;;;15.60;;
51358;SDS011;37448;51.588;7.248;2022-09-12T04:58:10;29.67;;;15.65;;
51358;SDS011;37448;51.588;7.248;2022-09-12T05:00:40;29.15;;;15.60;;
51358;SDS011;37448;51.588;7.248;2022-09-12T05:03:11;28.73;;;16.10;;
51358;SDS011;37448;51.588;7.248;2022-09-12T05:05:41;29.25;;;14.43;;
51358;SDS011;37448;51.588;7.248;2022-09-12T05:08:11;26.02;;;14.38;;
51358;SDS011;37448;51.588;7.248;2022-09-12T05:10:42;27.98;;;14.68;;
51358;SDS011;37448;51.588;7.248;2022-09-12T05:13:12;27.13;;;15.85;;
51358;SDS011;37448;51.588;7.248;2022-09-12T05:15:42;25.75;;;14.27;;
51358;SDS011;37448;51.588;7.248;2022-09-12T05:18:13;32.45;;;16.00;;
51358;SDS011;37448;51.588;7.248;2022-09-12T05:20:43;29.83;;;15.48;;
51358;SDS011;37448;51.588;7.248;2022-09-12T05:23:14;27.60;;;15.05;;
51358;SDS011;37448;51.588;7.248;2022-09-12T05:25:48;31.85;;;16.15;;
51358;SDS011;37448;51.588;7.248;2022-09-12T05:28:22;30.02;;;15.55;;
51358;SDS011;37448;51.588;7.248;2022-09-12T05:31:00;32.88;;;15.82;;
51358;SDS011;37448;51.588;7.248;2022-09-12T05:33:33;31.30;;;16.00;;
51358;SDS011;37448;51.588;7.248;2022-09-12T05:36:09;28.83;;;15.07;;
51358;SDS011;37448;51.588;7.248;2022-09-12T05:38:42;29.48;;;14.68;;
51358;SDS011;37448;51.588;7.248;2022-09-12T05:41:24;26.92;;;15.18;;
51358;SDS011;37448;51.588;7.248;2022-09-12T05:43:56;32.50;;;15.45;;
51358;SDS011;37448;51.588;7.248;2022-09-12T05:46:29;32.13;;;15.70;;
51358;SDS011;37448;51.588;7.248;2022-09-12T05:49:02;29.35;;;14.75;;
51358;SDS011;37448;51.588;7.248;2022-09-12T05:51:35;32.03;;;16.47;;
51358;SDS011;37448;51.588;7.248;2022-09-12T05:54:09;27.83;;;15.20;;
51358;SDS011;37448;51.588;7.248;2022-09-12T05:56:42;32.33;;;15.95;;
51358;SDS011;37448;51.588;7.248;2022-09-12T05:59:15;24.02;;;14.30;;
51358;SDS011;37448;51.588;7.248;2022-09-12T06:01:49;26.75;;;14.00;;
51358;SDS011;37448;51.588;7.248;2022-09-12T06:04:21;26.10;;;14.20;;
51358;SDS011;37448;51.588;7.248;2022-09-12T06:06:52;26.13;;;14.20;;
51358;SDS011;37448;51.588;7.248;2022-09-12T06:09:23;27.02;;;14.73;;
51358;SDS011;37448;51.588;7.248;2022-09-12T06:11:54;22.92;;;13.48;;
51358;SDS011;37448;51.588;7.248;2022-09-12T06:14:24;24.77;;;12.48;;
51358;SDS011;37448;51.588;7.248;2022-09-12T06:16:55;23.27;;;12.10;;
51358;SDS011;37448;51.588;7.248;2022-09-12T06:19:25;24.08;;;13.30;;
51358;SDS011;37448;51.588;7.248;2022-09-12T06:21:57;23.67;;;12.43;;
51358;SDS011;37448;51.588;7.248;2022-09-12T06:24:27;22.95;;;12.40;;
51358;SDS011;37448;51.588;7.248;2022-09-12T06:26:58;22.58;;;13.05;;
51358;SDS011;37448;51.588;7.248;2022-09-12T06:29:28;25.83;;;12.07;;
51358;SDS011;37448;51.588;7.248;2022-09-12T06:32:01;17.92;;;11.20;;
51358;SDS011;37448;51.588;7.248;2022-09-12T06:34:31;21.35;;;12.07;;
51358;SDS011;37448;51.588;7.248;2022-09-12T06:37:02;23.58;;;11.15;;
51358;SDS011;37448;51.588;7.248;2022-09-12T06:39:33;19.27;;;10.85;;
51358;SDS011;37448;51.588;7.248;2022-09-12T06:42:05;20.03;;;10.90;;
51358;SDS011;37448;51.588;7.248;2022-09-12T06:44:35;21.90;;;12.20;;
51358;SDS011;37448;51.588;7.248;2022-09-12T06:47:06;19.48;;;11.43;;
51358;SDS011;37448;51.588;7.248;2022-09-12T06:49:36;18.58;;;11.40;;
51358;SDS011;37448;51.588;7.248;2022-09-12T06:52:07;17.55;;;9.85;;
51358;SDS011;37448;51.588;7.248;2022-09-12T06:54:38;18.63;;;10.38;;
51358;SDS011;37448;51.588;7.248;2022-09-12T06:57:08;17.60;;;10.60;;
51358;SDS011;37448;51.588;7.248;2022-09-12T06:59:38;19.98;;;10.63;;
51358;SDS011;37448;51.588;7.248;2022-09-12T07:02:09;16.60;;;10.32;;
51358;SDS011;37448;51.588;7.248;2022-09-12T07:04:39;17.90;;;10.50;;
51358;SDS011;37448;51.588;7.248;2022-09-12T07:07:09;21.13;;;10.52;;
51358;SDS011;37448;51.588;7.248;2022-09-12T07:09:40;18.05;;;10.45;;
51358;SDS011;37448;51.588;7.248;2022-09-12T07:12:10;21.45;;;10.02;;
51358;SDS011;37448;51.588;7.248;2022-09-12T07:14:41;22.00;;;10.35;;
51358;SDS011;37448;51.588;7.248;2022-09-12T07:17:11;20.70;;;11.15;;
51358;SDS011;37448;51.588;7.248;2022-09-12T07:19:42;17.13;;;9.90;;
51358;SDS011;37448;51.588;7.248;2022-09-12T07:22:12;18.40;;;10.60;;
51358;SDS011;37448;51.588;7.248;2022-09-12T07:24:42;17.35;;;9.68;;
51358;SDS011;37448;51.588;7.248;2022-09-12T07:27:14;19.55;;;9.85;;
51358;SDS011;37448;51.588;7.248;2022-09-12T07:29:45;15.85;;;9.25;;
51358;SDS011;37448;51.588;7.248;2022-09-12T07:32:16;16.90;;;9.70;;
51358;SDS011;37448;51.588;7.248;2022-09-12T07:34:46;15.75;;;9.50;;
51358;SDS011;37448;51.588;7.248;2022-09-12T07:37:17;23.25;;;9.82;;
51358;SDS011;37448;51.588;7.248;2022-09-12T07:39:47;16.70;;;9.73;;
51358;SDS011;37448;51.588;7.248;2022-09-12T07:42:18;20.92;;;10.18;;
51358;SDS011;37448;51.588;7.248;2022-09-12T07:44:48;17.92;;;9.25;;
51358;SDS011;37448;51.588;7.248;2022-09-12T07:47:21;18.33;;;10.40;;
51358;SDS011;37448;51.588;7.248;2022-09-12T07:49:51;19.90;;;10.82;;
51358;SDS011;37448;51.588;7.248;2022-09-12T07:52:22;20.25;;;10.77;;
51358;SDS011;37448;51.588;7.248;2022-09-12T07:54:52;18.33;;;11.48;;
51358;SDS011;37448;51.588;7.248;2022-09-12T07:57:22;21.17;;;11.43;;
51358;SDS011;37448;51.588;7.248;2022-09-12T07:59:54;19.38;;;10.98;;
51358;SDS011;37448;51.588;7.248;2022-09-12T08:02:25;19.85;;;12.20;;
51358;SDS011;37448;51.588;7.248;2022-09-12T08:04:55;18.67;;;11.65;;
51358;SDS011;37448;51.588;7.248;2022-09-12T08:07:25;22.70;;;11.82;;
51358;SDS011;37448;51.588;7.248;2022-09-12T08:09:56;18.38;;;11.05;;
51358;SDS011;37448;51.588;7.248;2022-09-12T08:12:26;28.83;;;11.68;;
51358;SDS011;37448;51.588;7.248;2022-09-12T08:14:57;18.70;;;10.82;;
51358;SDS011;37448;51.588;7.248;2022-09-12T08:17:27;18.27;;;11.23;;
51358;SDS011;37448;51.588;7.248;2022-09-12T08:19:58;18.38;;;10.85;;
51358;SDS011;37448;51.588;7.248;2022-09-12T08:22:29;17.88;;;10.63;;
51358;SDS011;37448;51.588;7.248;2022-09-12T08:25:00;19.77;;;10.85;;
51358;SDS011;37448;51.588;7.248;2022-09-12T08:27:30;17.50;;;10.13;;
51358;SDS011;37448;51.588;7.248;2022-09-12T08:30:01;20.60;;;10.55;;
51358;SDS011;37448;51.588;7.248;2022-09-12T08:32:33;18.23;;;9.85;;
51358;SDS011;37448;51.588;7.248;2022-09-12T08:35:03;16.42;;;9.23;;
51358;SDS011;37448;51.588;7.248;2022-09-12T08:37:34;17.35;;;9.77;;
51358;SDS011;37448;51.588;7.248;2022-09-12T08:40:04;15.65;;;9.25;;
51358;SDS011;37448;51.588;7.248;2022-09-12T08:42:51;15.25;;;9.93;;
51358;SDS011;37448;51.588;7.248;2022-09-12T08:45:33;15.88;;;9.18;;
51358;SDS011;37448;51.588;7.248;2022-09-12T08:48:07;16.30;;;8.60;;
51358;SDS011;37448;51.588;7.248;2022-09-12T08:50:41;15.25;;;8.48;;
51358;SDS011;37448;51.588;7.248;2022-09-12T08:53:15;17.38;;;8.85;;
51358;SDS011;37448;51.588;7.248;2022-09-12T08:56:08;16.55;;;8.15;;
51358;SDS011;37448;51.588;7.248;2022-09-12T08:58:41;12.90;;;7.00;;
51358;SDS011;37448;51.588;7.248;2022-09-12T09:01:21;13.88;;;7.63;;
51358;SDS011;37448;51.588;7.248;2022-09-12T09:06:46;12.65;;;7.07;;
51358;SDS011;37448;51.588;7.248;2022-09-12T09:20:51;10.55;;;6.90;;
51358;SDS011;37448;51.588;7.248;2022-09-12T09:23:33;11.70;;;6.50;;
51358;SDS011;37448;51.588;7.248;2022-09-12T09:28:48;12.57;;;6.45;;
51358;SDS011;37448;51.588;7.248;2022-09-12T09:31:22;11.27;;;6.32;;
51358;SDS011;37448;51.588;7.248;2022-09-12T09:33:54;11.25;;;6.03;;
51358;SDS011;37448;51.588;7.248;2022-09-12T09:42:25;9.90;;;6.20;;
51358;SDS011;37448;51.588;7.248;2022-09-12T09:44:58;9.07;;;5.78;;
51358;SDS011;37448;51.588;7.248;2022-09-12T09:47:31;9.10;;;5.43;;
51358;SDS011;37448;51.588;7.248;2022-09-12T09:50:02;8.85;;;5.18;;
51358;SDS011;37448;51.588;7.248;2022-09-12T09:52:32;10.65;;;5.57;;
51358;SDS011;37448;51.588;7.248;2022-09-12T09:55:09;8.75;;;5.50;;
51358;SDS011;37448;51.588;7.248;2022-09-12T09:57:45;10.02;;;5.30;;
51358;SDS011;37448;51.588;7.248;2022-09-12T10:03:00;9.82;;;4.80;;
51358;SDS011;37448;51.588;7.248;2022-09-12T10:05:34;9.50;;;5.30;;
51358;SDS011;37448;51.588;7.248;2022-09-12T10:11:03;8.35;;;4.50;;
51358;SDS011;37448;51.588;7.248;2022-09-12T10:13:37;7.95;;;4.82;;
51358;SDS011;37448;51.588;7.248;2022-09-12T10:16:17;10.38;;;4.38;;
51358;SDS011;37448;51.588;7.248;2022-09-12T10:18:50;7.60;;;4.40;;
51358;SDS011;37448;51.588;7.248;2022-09-12T10:21:33;7.75;;;3.80;;
51358;SDS011;37448;51.588;7.248;2022-09-12T10:24:30;7.28;;;3.58;;
51358;SDS011;37448;51.588;7.248;2022-09-12T10:27:18;5.10;;;3.05;;
51358;SDS011;37448;51.588;7.248;2022-09-12T10:32:50;5.75;;;3.00;;
51358;SDS011;37448;51.588;7.248;2022-09-12T10:35:22;7.03;;;3.80;;
51358;SDS011;37448;51.588;7.248;2022-09-12T10:40:37;5.53;;;2.80;;
51358;SDS011;37448;51.588;7.248;2022-09-12T10:43:16;5.18;;;3.03;;
51358;SDS011;37448;51.588;7.248;2022-09-12T10:45:55;6.18;;;2.53;;
51358;SDS011;37448;51.588;7.248;2022-09-12T10:51:00;6.18;;;2.45;;
51358;SDS011;37448;51.588;7.248;2022-09-12T10:53:31;3.53;;;2.20;;
51358;SDS011;37448;51.588;7.248;2022-09-12T10:56:11;5.72;;;2.30;;
51358;SDS011;37448;51.588;7.248;2022-09-12T11:01:37;4.60;;;2.30;;
51358;SDS011;37448;51.588;7.248;2022-09-12T11:04:22;4.22;;;2.25;;
51358;SDS011;37448;51.588;7.248;2022-09-12T11:28:26;3.45;;;1.83;;
51358;SDS011;37448;51.588;7.248;2022-09-12T11:33:53;3.85;;;1.70;;
51358;SDS011;37448;51.588;7.248;2022-09-12T11:41:47;3.47;;;1.80;;
51358;SDS011;37448;51.588;7.248;2022-09-12T11:44:25;4.50;;;1.92;;
51358;SDS011;37448;51.588;7.248;2022-09-12T11:47:06;5.00;;;2.28;;
51358;SDS011;37448;51.588;7.248;2022-09-12T11:49:43;3.42;;;1.80;;
51358;SDS011;37448;51.588;7.248;2022-09-12T11:52:24;3.92;;;1.73;;
51358;SDS011;37448;51.588;7.248;2022-09-12T11:55:03;4.18;;;2.00;;
51358;SDS011;37448;51.588;7.248;2022-09-12T12:00:18;3.92;;;1.88;;
51358;SDS011;37448;51.588;7.248;2022-09-12T12:05:38;3.67;;;1.98;;
51358;SDS011;37448;51.588;7.248;2022-09-12T12:08:14;4.55;;;2.10;;
51358;SDS011;37448;51.588;7.248;2022-09-12T12:10:49;3.92;;;1.92;;
51358;SDS011;37448;51.588;7.248;2022-09-12T12:13:30;3.67;;;1.80;;
51358;SDS011;37448;51.588;7.248;2022-09-12T12:16:05;2.70;;;1.57;;
51358;SDS011;37448;51.588;7.248;2022-09-12T12:18:37;3.08;;;1.77;;
51358;SDS011;37448;51.588;7.248;2022-09-12T12:34:36;2.58;;;1.70;;
51358;SDS011;37448;51.588;7.248;2022-09-12T12:39:56;4.15;;;1.90;;
51358;SDS011;37448;51.588;7.248;2022-09-12T12:50:39;3.67;;;1.80;;
51358;SDS011;37448;51.588;7.248;2022-09-12T12:55:52;5.75;;;2.10;;
51358;SDS011;37448;51.588;7.248;2022-09-12T12:58:29;3.08;;;1.85;;
51358;SDS011;37448;51.588;7.248;2022-09-12T13:01:18;4.15;;;2.10;;
51358;SDS011;37448;51.588;7.248;2022-09-12T13:06:34;4.22;;;2.00;;
51358;SDS011;37448;51.588;7.248;2022-09-12T13:09:07;5.38;;;2.42;;
51358;SDS011;37448;51.588;7.248;2022-09-12T13:11:56;4.75;;;2.28;;
51358;SDS011;37448;51.588;7.248;2022-09-12T13:17:26;2.90;;;2.05;;
51358;SDS011;37448;51.588;7.248;2022-09-12T13:20:22;4.18;;;2.25;;
51358;SDS011;37448;51.588;7.248;2022-09-12T13:22:53;4.43;;;2.10;;
51358;SDS011;37448;51.588;7.248;2022-09-12T13:25:25;3.53;;;1.90;;
51358;SDS011;37448;51.588;7.248;2022-09-12T13:30:42;6.70;;;2.53;;
51358;SDS011;37448;51.588;7.248;2022-09-12T13:44:43;3.53;;;1.85;;
51358;SDS011;37448;51.588;7.248;2022-09-12T13:47:24;5.25;;;2.40;;
51358;SDS011;37448;51.588;7.248;2022-09-12T13:49:59;2.92;;;1.60;;
51358;SDS011;37448;51.588;7.248;2022-09-12T13:52:32;4.40;;;2.30;;
51358;SDS011;37448;51.588;7.248;2022-09-12T13:55:07;4.63;;;2.03;;
51358;SDS011;37448;51.588;7.248;2022-09-12T13:58:14;5.10;;;1.90;;
51358;SDS011;37448;51.588;7.248;2022-09-12T14:01:00;3.55;;;1.80;;
51358;SDS011;37448;51.588;7.248;2022-09-12T14:06:45;4.75;;;2.00;;
51358;SDS011;37448;51.588;7.248;2022-09-12T14:09:21;2.95;;;1.83;;
51358;SDS011;37448;51.588;7.248;2022-09-12T14:11:55;6.20;;;1.90;;
51358;SDS011;37448;51.588;7.248;2022-09-12T14:14:31;3.75;;;1.92;;
51358;SDS011;37448;51.588;7.248;2022-09-12T14:17:47;3.80;;;1.85;;
51358;SDS011;37448;51.588;7.248;2022-09-12T14:20:05;3.03;;;1.90;;
51358;SDS011;37448;51.588;7.248;2022-09-12T14:22:40;3.40;;;2.00;;
51358;SDS011;37448;51.588;7.248;2022-09-12T14:25:15;4.22;;;2.00;;
51358;SDS011;37448;51.588;7.248;2022-09-12T14:27:52;5.60;;;2.00;;
51358;SDS011;37448;51.588;7.248;2022-09-12T14:30:30;3.63;;;2.05;;
51358;SDS011;37448;51.588;7.248;2022-09-12T14:35:40;6.70;;;3.50;;
51358;SDS011;37448;51.588;7.248;2022-09-12T14:41:07;4.07;;;2.10;;
51358;SDS011;37448;51.588;7.248;2022-09-12T14:43:39;18.33;;;11.40;;
51358;SDS011;37448;51.588;7.248;2022-09-12T14:46:17;11.10;;;6.70;;
51358;SDS011;37448;51.588;7.248;2022-09-12T14:48:52;9.75;;;3.00;;
51358;SDS011;37448;51.588;7.248;2022-09-12T14:51:27;4.00;;;2.20;;
51358;SDS011;37448;51.588;7.248;2022-09-12T14:54:02;3.65;;;2.08;;
51358;SDS011;37448;51.588;7.248;2022-09-12T14:56:40;3.15;;;1.88;;
51358;SDS011;37448;51.588;7.248;2022-09-12T15:04:53;3.40;;;2.10;;
51358;SDS011;37448;51.588;7.248;2022-09-12T15:07:44;3.92;;;2.20;;
51358;SDS011;37448;51.588;7.248;2022-09-12T15:10:21;5.95;;;2.13;;
51358;SDS011;37448;51.588;7.248;2022-09-12T15:15:38;4.28;;;2.22;;
51358;SDS011;37448;51.588;7.248;2022-09-12T15:18:11;6.90;;;3.13;;
51358;SDS011;37448;51.588;7.248;2022-09-12T15:20:43;7.40;;;2.78;;
51358;SDS011;37448;51.588;7.248;2022-09-12T15:23:16;4.47;;;2.70;;
51358;SDS011;37448;51.588;7.248;2022-09-12T15:26:00;5.28;;;2.70;;
51358;SDS011;37448;51.588;7.248;2022-09-12T15:28:31;15.32;;;8.13;;
51358;SDS011;37448;51.588;7.248;2022-09-12T15:33:52;4.80;;;2.20;;
51358;SDS011;37448;51.588;7.248;2022-09-12T15:36:23;4.25;;;2.15;;
51358;SDS011;37448;51.588;7.248;2022-09-12T15:38:55;3.00;;;1.70;;
51358;SDS011;37448;51.588;7.248;2022-09-12T15:44:08;3.58;;;2.20;;
51358;SDS011;37448;51.588;7.248;2022-09-12T15:46:41;4.70;;;2.33;;
51358;SDS011;37448;51.588;7.248;2022-09-12T15:49:11;6.45;;;2.30;;
51358;SDS011;37448;51.588;7.248;2022-09-12T15:51:41;4.93;;;2.30;;
51358;SDS011;37448;51.588;7.248;2022-09-12T15:54:12;4.72;;;2.47;;
51358;SDS011;37448;51.588;7.248;2022-09-12T15:56:50;3.60;;;2.13;;
51358;SDS011;37448;51.588;7.248;2022-09-12T15:59:20;4.45;;;2.20;;
51358;SDS011;37448;51.588;7.248;2022-09-12T16:01:51;3.88;;;2.15;;
51358;SDS011;37448;51.588;7.248;2022-09-12T16:04:22;3.88;;;2.17;;
51358;SDS011;37448;51.588;7.248;2022-09-12T16:06:54;5.32;;;2.67;;
51358;SDS011;37448;51.588;7.248;2022-09-12T16:09:25;6.32;;;2.55;;
51358;SDS011;37448;51.588;7.248;2022-09-12T16:11:56;5.97;;;2.05;;
51358;SDS011;37448;51.588;7.248;2022-09-12T16:14:26;5.47;;;2.60;;
51358;SDS011;37448;51.588;7.248;2022-09-12T16:16:56;4.50;;;2.30;;
51358;SDS011;37448;51.588;7.248;2022-09-12T16:19:27;6.05;;;2.45;;
51358;SDS011;37448;51.588;7.248;2022-09-12T16:21:57;4.18;;;2.20;;
51358;SDS011;37448;51.588;7.248;2022-09-12T16:24:28;5.32;;;2.55;;
51358;SDS011;37448;51.588;7.248;2022-09-12T16:26:58;4.18;;;2.30;;
51358;SDS011;37448;51.588;7.248;2022-09-12T16:29:28;3.95;;;2.28;;
51358;SDS011;37448;51.588;7.248;2022-09-12T16:31:59;5.28;;;2.28;;
51358;SDS011;37448;51.588;7.248;2022-09-12T16:34:29;4.95;;;2.20;;
51358;SDS011;37448;51.588;7.248;2022-09-12T16:37:00;4.28;;;2.42;;
51358;SDS011;37448;51.588;7.248;2022-09-12T16:39:31;4.60;;;1.88;;
51358;SDS011;37448;51.588;7.248;2022-09-12T16:42:03;6.28;;;2.17;;
51358;SDS011;37448;51.588;7.248;2022-09-12T16:44:33;4.57;;;2.47;;
51358;SDS011;37448;51.588;7.248;2022-09-12T16:47:04;4.65;;;2.13;;
51358;SDS011;37448;51.588;7.248;2022-09-12T16:49:34;5.05;;;2.28;;
51358;SDS011;37448;51.588;7.248;2022-09-12T16:52:05;4.63;;;2.28;;
51358;SDS011;37448;51.588;7.248;2022-09-12T16:54:35;4.90;;;2.10;;
51358;SDS011;37448;51.588;7.248;2022-09-12T16:57:06;5.15;;;2.40;;
51358;SDS011;37448;51.588;7.248;2022-09-12T16:59:36;4.50;;;2.30;;
51358;SDS011;37448;51.588;7.248;2022-09-12T17:02:09;5.22;;;2.17;;
51358;SDS011;37448;51.588;7.248;2022-09-12T17:04:41;3.60;;;2.10;;
51358;SDS011;37448;51.588;7.248;2022-09-12T17:07:11;4.35;;;2.10;;
51358;SDS011;37448;51.588;7.248;2022-09-12T17:09:41;3.55;;;1.80;;
51358;SDS011;37448;51.588;7.248;2022-09-12T17:12:12;6.97;;;2.40;;
51358;SDS011;37448;51.588;7.248;2022-09-12T17:14:42;5.78;;;2.20;;
51358;SDS011;37448;51.588;7.248;2022-09-12T17:17:13;4.68;;;2.38;;
51358;SDS011;37448;51.588;7.248;2022-09-12T17:19:43;4.32;;;2.20;;
51358;SDS011;37448;51.588;7.248;2022-09-12T17:22:14;4.70;;;2.28;;
51358;SDS011;37448;51.588;7.248;2022-09-12T17:24:44;4.47;;;2.30;;
51358;SDS011;37448;51.588;7.248;2022-09-12T17:27:14;4.88;;;2.15;;
51358;SDS011;37448;51.588;7.248;2022-09-12T17:29:45;4.88;;;2.40;;
51358;SDS011;37448;51.588;7.248;2022-09-12T17:32:15;3.95;;;2.00;;
51358;SDS011;37448;51.588;7.248;2022-09-12T17:34:45;5.72;;;2.10;;
51358;SDS011;37448;51.588;7.248;2022-09-12T17:37:16;4.60;;;2.10;;
51358;SDS011;37448;51.588;7.248;2022-09-12T17:39:46;3.97;;;2.10;;
51358;SDS011;37448;51.588;7.248;2022-09-12T17:42:17;4.18;;;2.17;;
51358;SDS011;37448;51.588;7.248;2022-09-12T17:44:47;4.80;;;2.17;;
51358;SDS011;37448;51.588;7.248;2022-09-12T17:47:19;6.68;;;2.60;;
51358;SDS011;37448;51.588;7.248;2022-09-12T17:49:49;4.65;;;2.25;;
51358;SDS011;37448;51.588;7.248;2022-09-12T17:52:20;5.20;;;2.45;;
51358;SDS011;37448;51.588;7.248;2022-09-12T17:54:51;4.38;;;2.47;;
51358;SDS011;37448;51.588;7.248;2022-09-12T17:57:21;5.65;;;2.70;;
51358;SDS011;37448;51.588;7.248;2022-09-12T17:59:52;5.63;;;2.40;;
51358;SDS011;37448;51.588;7.248;2022-09-12T18:02:22;6.53;;;2.30;;
51358;SDS011;37448;51.588;7.248;2022-09-12T18:04:52;7.15;;;2.72;;
51358;SDS011;37448;51.588;7.248;2022-09-12T18:07:23;5.25;;;2.33;;
51358;SDS011;37448;51.588;7.248;2022-09-12T18:09:53;5.00;;;2.60;;
51358;SDS011;37448;51.588;7.248;2022-09-12T18:12:24;4.25;;;2.40;;